Time;durP1;ratioP1;P1;durP2;ratioP2;P2;SDS_P1;SDS_P2;PMS_P1;PMS_P2;Temp;Humidity;BMP_temperature;BMP_pressure;BME280_temperature;BME280_humidity;BME280_pressure;Samples;Min_cycle;Max_cycle;Signal;HPM_P1;HPM_P2
2023/07/07 00:01:04;;;;;;;3.33;1.70;;;14.20;99.90;;;;;;5058778;28;20817;-67
2023/07/07 00:03:30;;;;;;;2.43;1.70;;;14.10;99.90;;;;;;5058910;28;20171;-68
2023/07/07 00:05:56;;;;;;;2.70;1.67;;;14.10;99.90;;;;;;5058481;28;20429;-67
2023/07/07 00:08:21;;;;;;;2.47;1.77;;;14.10;99.90;;;;;;5058932;28;20431;-69
2023/07/07 00:10:47;;;;;;;2.27;1.60;;;14.00;99.90;;;;;;5058125;28;20199;-68
2023/07/07 00:13:14;;;;;;;2.50;1.53;;;14.00;99.90;;;;;;5058640;28;20171;-67
2023/07/07 00:15:44;;;;;;;2.03;1.50;;;14.00;99.90;;;;;;5058496;28;20174;-68
2023/07/07 00:18:10;;;;;;;1.93;1.47;;;13.90;99.90;;;;;;5058848;28;20424;-67
2023/07/07 00:20:36;;;;;;;3.40;2.03;;;13.90;99.90;;;;;;5058772;28;20412;-68
2023/07/07 00:23:01;;;;;;;2.13;1.30;;;13.80;99.90;;;;;;5058566;28;20414;-67
2023/07/07 00:25:27;;;;;;;2.67;1.60;;;13.80;99.90;;;;;;5058130;28;20266;-66
2023/07/07 00:27:52;;;;;;;3.10;1.50;;;13.80;99.90;;;;;;5057697;28;20182;-67
2023/07/07 00:30:18;;;;;;;3.37;2.07;;;13.70;99.90;;;;;;5058215;28;20170;-69
2023/07/07 00:32:43;;;;;;;3.70;2.23;;;13.70;99.90;;;;;;5058544;28;20203;-67
2023/07/07 00:35:09;;;;;;;2.43;1.53;;;13.60;99.90;;;;;;5058074;28;20212;-68
2023/07/07 00:37:35;;;;;;;3.33;2.30;;;13.50;99.90;;;;;;5058328;28;20198;-68
2023/07/07 00:40:01;;;;;;;2.43;1.77;;;13.50;99.90;;;;;;5058865;28;20213;-68
2023/07/07 00:42:27;;;;;;;3.83;1.70;;;13.50;99.90;;;;;;5058900;28;20971;-69
2023/07/07 00:45:04;;;;;;;2.40;1.70;;;13.50;99.90;;;;;;5059237;28;20409;-69
2023/07/07 00:47:30;;;;;;;2.30;1.43;;;13.50;99.90;;;;;;5058242;28;20543;-68
2023/07/07 00:49:56;;;;;;;3.13;1.70;;;13.50;99.90;;;;;;5057943;28;20397;-68
2023/07/07 00:52:22;;;;;;;4.97;1.97;;;13.50;99.90;;;;;;5058326;28;20965;-67
2023/07/07 00:54:48;;;;;;;1.93;1.80;;;13.40;99.90;;;;;;5057902;28;20201;-68
2023/07/07 00:57:13;;;;;;;2.20;1.87;;;13.40;99.90;;;;;;5057708;28;20766;-68
2023/07/07 00:59:42;;;;;;;2.00;1.67;;;13.40;99.90;;;;;;5058040;28;20651;-69
2023/07/07 01:02:15;;;;;;;2.53;2.10;;;13.40;99.90;;;;;;5057481;28;20171;-67
2023/07/07 01:04:48;;;;;;;3.30;2.43;;;13.40;99.90;;;;;;5057016;28;20440;-68
2023/07/07 01:07:20;;;;;;;2.30;1.80;;;13.30;99.90;;;;;;5055959;28;20540;-68
2023/07/07 01:09:45;;;;;;;2.23;1.83;;;13.30;99.90;;;;;;5057002;28;20401;-68
2023/07/07 01:12:13;;;;;;;2.80;2.20;;;13.30;99.90;;;;;;5057713;28;20567;-67
2023/07/07 01:14:39;;;;;;;2.43;2.13;;;13.30;99.90;;;;;;5056400;28;20167;-68
2023/07/07 01:17:28;;;;;;;3.93;2.47;;;13.30;99.90;;;;;;5057190;28;20424;-67
2023/07/07 01:20:00;;;;;;;2.27;1.73;;;13.30;99.90;;;;;;5057449;28;20622;-67
2023/07/07 01:22:57;;;;;;;3.00;1.40;;;13.20;99.90;;;;;;5057347;28;20405;-67
2023/07/07 01:25:46;;;;;;;2.57;2.10;;;13.20;99.90;;;;;;5057532;28;20412;-68
2023/07/07 01:28:56;;;;;;;2.97;1.90;;;13.20;99.90;;;;;;5058025;28;20464;-68
2023/07/07 01:31:28;;;;;;;2.73;1.50;;;13.20;99.90;;;;;;5057662;28;20441;-68
2023/07/07 01:33:54;;;;;;;2.43;2.07;;;13.10;99.90;;;;;;5058125;28;20382;-67
2023/07/07 01:36:20;;;;;;;2.90;2.13;;;13.10;99.90;;;;;;5055351;28;20420;-68
2023/07/07 01:38:46;;;;;;;2.10;1.70;;;13.10;99.90;;;;;;5057397;28;20433;-67
2023/07/07 01:41:30;;;;;;;3.70;2.40;;;13.10;99.90;;;;;;5057017;28;20210;-69
2023/07/07 01:43:56;;;;;;;2.60;1.60;;;13.00;99.90;;;;;;5057769;28;20882;-67
2023/07/07 01:46:27;;;;;;;2.70;1.77;;;13.00;99.90;;;;;;5056169;28;20416;-67
2023/07/07 01:49:18;;;;;;;2.20;2.00;;;13.00;99.90;;;;;;5057348;28;20274;-68
2023/07/07 01:52:34;;;;;;;3.20;2.30;;;12.90;99.90;;;;;;5056997;28;20445;-69
2023/07/07 01:55:19;;;;;;;3.77;2.20;;;12.90;99.90;;;;;;5034496;28;20418;-69
2023/07/07 01:57:48;;;;;;;2.93;2.10;;;12.90;99.90;;;;;;5021877;28;20977;-67
2023/07/07 02:00:15;;;;;;;3.70;2.30;;;12.90;99.90;;;;;;5053419;28;20406;-68
2023/07/07 02:02:41;;;;;;;3.10;2.60;;;12.90;99.90;;;;;;5058744;28;20513;-68
2023/07/07 02:05:07;;;;;;;2.90;1.97;;;12.90;99.90;;;;;;5059951;28;20437;-68
2023/07/07 02:07:33;;;;;;;4.27;2.73;;;12.90;99.90;;;;;;5059500;28;20278;-68
2023/07/07 02:09:58;;;;;;;2.60;2.20;;;12.90;99.90;;;;;;5059715;28;20441;-69
2023/07/07 02:12:24;;;;;;;2.60;1.90;;;12.90;99.90;;;;;;5059640;28;20230;-68
2023/07/07 02:14:49;;;;;;;7.20;2.50;;;12.90;99.90;;;;;;5059345;28;20178;-67
2023/07/07 02:17:16;;;;;;;3.80;2.07;;;12.90;99.90;;;;;;5059154;28;20313;-68
2023/07/07 02:19:42;;;;;;;2.60;2.40;;;12.90;99.90;;;;;;5060666;28;20849;-67
2023/07/07 02:22:08;;;;;;;3.10;2.13;;;12.90;99.90;;;;;;5060286;28;20175;-68
2023/07/07 02:24:34;;;;;;;3.00;2.27;;;12.90;99.90;;;;;;5060400;28;20505;-67
2023/07/07 02:27:01;;;;;;;2.27;2.03;;;12.80;99.90;;;;;;5060319;28;20190;-67
2023/07/07 02:29:27;;;;;;;2.33;2.03;;;12.90;99.90;;;;;;5060199;28;20163;-67
2023/07/07 02:31:52;;;;;;;8.63;5.80;;;12.80;99.90;;;;;;5060314;28;20460;-68
2023/07/07 02:34:18;;;;;;;4.03;3.27;;;12.80;99.90;;;;;;5060259;28;20172;-68
2023/07/07 02:36:43;;;;;;;4.23;2.60;;;12.80;99.90;;;;;;5059444;28;20174;-68
2023/07/07 02:39:09;;;;;;;3.70;2.20;;;12.80;99.90;;;;;;5059437;28;20684;-67
2023/07/07 02:41:34;;;;;;;4.30;2.10;;;12.80;99.90;;;;;;5060159;28;20171;-68
2023/07/07 02:44:00;;;;;;;5.13;2.00;;;12.80;99.90;;;;;;5060371;28;20220;-68
2023/07/07 02:46:25;;;;;;;5.30;2.30;;;12.80;99.90;;;;;;5059496;28;20197;-69
2023/07/07 02:48:51;;;;;;;3.10;2.10;;;12.80;99.90;;;;;;5059567;28;20195;-68
2023/07/07 02:51:17;;;;;;;3.00;2.50;;;12.90;99.90;;;;;;5059963;28;20198;-67
2023/07/07 02:53:42;;;;;;;4.53;2.77;;;12.90;99.90;;;;;;5060288;28;20171;-69
2023/07/07 02:56:08;;;;;;;4.50;2.47;;;13.00;99.90;;;;;;5059525;28;20416;-69
2023/07/07 02:58:34;;;;;;;3.03;2.57;;;12.90;99.90;;;;;;5059510;28;20577;-68
2023/07/07 03:01:15;;;;;;;4.90;3.10;;;12.90;99.90;;;;;;5059632;28;20175;-69
2023/07/07 03:03:43;;;;;;;4.30;2.80;;;12.90;99.90;;;;;;5059138;28;20413;-67
2023/07/07 03:06:15;;;;;;;4.90;3.07;;;12.90;99.90;;;;;;5057621;28;20409;-68
2023/07/07 03:08:41;;;;;;;6.00;2.40;;;13.00;99.90;;;;;;5057532;28;20463;-68
2023/07/07 03:11:09;;;;;;;2.27;2.00;;;13.00;99.90;;;;;;5059307;28;20449;-68
2023/07/07 03:13:35;;;;;;;6.07;1.73;;;13.00;99.90;;;;;;5059417;28;20167;-67
2023/07/07 03:16:08;;;;;;;3.37;2.30;;;13.00;99.90;;;;;;5058536;28;20413;-67
2023/07/07 03:18:34;;;;;;;3.77;2.00;;;13.00;99.90;;;;;;5057091;28;20191;-67
2023/07/07 03:20:59;;;;;;;2.60;2.23;;;13.00;99.90;;;;;;5058238;28;20495;-68
2023/07/07 03:23:24;;;;;;;3.00;2.07;;;13.00;99.90;;;;;;5057891;28;20171;-67
2023/07/07 03:25:50;;;;;;;2.10;1.93;;;13.00;99.90;;;;;;5057581;28;20193;-67
2023/07/07 03:28:16;;;;;;;3.20;1.83;;;12.90;99.90;;;;;;5057642;28;20187;-67
2023/07/07 03:30:41;;;;;;;5.30;2.60;;;12.90;99.90;;;;;;5056759;28;20210;-67
2023/07/07 03:33:07;;;;;;;2.60;2.03;;;12.90;99.90;;;;;;5056373;28;20181;-68
2023/07/07 03:35:32;;;;;;;4.50;2.60;;;12.90;99.90;;;;;;5056324;28;20190;-67
2023/07/07 03:37:58;;;;;;;2.33;1.97;;;12.80;99.90;;;;;;5056034;28;20221;-67
2023/07/07 03:40:23;;;;;;;6.17;2.60;;;12.80;99.90;;;;;;5056120;28;20651;-67
2023/07/07 03:42:49;;;;;;;2.43;2.03;;;12.80;99.90;;;;;;5054168;28;20227;-68
2023/07/07 03:45:16;;;;;;;3.03;2.13;;;12.80;99.90;;;;;;5052970;28;20260;-67
2023/07/07 03:47:43;;;;;;;2.40;2.20;;;12.80;99.90;;;;;;5054571;28;20351;-68
2023/07/07 03:50:09;;;;;;;2.77;2.03;;;12.70;99.90;;;;;;5052977;28;20417;-68
2023/07/07 03:52:35;;;;;;;3.63;2.13;;;12.70;99.90;;;;;;5054126;28;20449;-66
2023/07/07 03:55:01;;;;;;;3.20;2.10;;;12.70;99.90;;;;;;5052320;28;20174;-67
2023/07/07 03:57:26;;;;;;;3.37;2.30;;;12.70;99.90;;;;;;5052604;28;20274;-67
2023/07/07 03:59:52;;;;;;;3.27;2.20;;;12.70;99.90;;;;;;5052627;28;20496;-67
2023/07/07 04:02:17;;;;;;;3.90;2.93;;;12.70;99.90;;;;;;5052605;28;20167;-67
2023/07/07 04:04:43;;;;;;;3.50;2.90;;;12.80;99.90;;;;;;5052511;28;20535;-67
2023/07/07 04:07:09;;;;;;;2.40;1.97;;;12.80;99.90;;;;;;5052340;28;20206;-68
2023/07/07 04:09:34;;;;;;;3.30;2.33;;;12.80;99.90;;;;;;5052651;28;20254;-68
2023/07/07 04:11:59;;;;;;;4.90;3.10;;;12.80;99.90;;;;;;5052433;28;20252;-67
2023/07/07 04:14:27;;;;;;;4.20;2.63;;;12.80;99.90;;;;;;5053810;28;20167;-67
2023/07/07 04:16:53;;;;;;;5.43;3.27;;;12.80;99.90;;;;;;5056774;28;20183;-68
2023/07/07 04:19:19;;;;;;;5.10;2.30;;;12.90;99.90;;;;;;5052152;28;20770;-68
2023/07/07 04:21:45;;;;;;;5.63;2.70;;;12.90;99.90;;;;;;5052386;28;20159;-68
2023/07/07 04:24:10;;;;;;;4.03;2.90;;;12.90;99.90;;;;;;5052347;28;20412;-68
2023/07/07 04:26:38;;;;;;;3.70;2.60;;;13.00;99.90;;;;;;5051891;28;20171;-67
2023/07/07 04:29:03;;;;;;;5.27;3.60;;;13.00;99.90;;;;;;5053801;28;20628;-67
2023/07/07 04:31:30;;;;;;;11.70;3.40;;;13.00;99.90;;;;;;5056932;28;20467;-67
2023/07/07 04:33:56;;;;;;;4.17;2.73;;;13.10;99.90;;;;;;5057255;28;20257;-68
2023/07/07 04:36:22;;;;;;;3.87;3.57;;;13.10;99.90;;;;;;5056265;28;20925;-67
2023/07/07 04:38:49;;;;;;;3.00;2.70;;;13.20;99.90;;;;;;5056411;28;20460;-66
2023/07/07 04:41:26;;;;;;;4.33;3.10;;;13.30;99.90;;;;;;5056343;28;20413;-67
2023/07/07 04:43:54;;;;;;;3.13;2.90;;;13.30;99.90;;;;;;5056099;28;20408;-67
2023/07/07 04:46:23;;;;;;;4.27;2.87;;;13.40;99.90;;;;;;5053403;28;20467;-67
2023/07/07 04:48:48;;;;;;;6.73;3.27;;;13.50;99.90;;;;;;5052168;28;20439;-67
2023/07/07 04:51:15;;;;;;;3.10;2.80;;;13.60;99.90;;;;;;5051947;28;20965;-68
2023/07/07 04:53:41;;;;;;;10.47;4.40;;;13.70;99.90;;;;;;5051911;28;20170;-66
2023/07/07 04:56:11;;;;;;;9.90;3.27;;;13.80;99.90;;;;;;5052869;28;20494;-68
2023/07/07 04:58:39;;;;;;;2.67;2.40;;;13.90;99.90;;;;;;5052714;28;20440;-67
2023/07/07 05:01:15;;;;;;;7.40;3.60;;;14.00;99.90;;;;;;5051886;28;20484;-68
2023/07/07 05:03:41;;;;;;;5.47;3.33;;;14.10;99.90;;;;;;5053926;28;20892;-67
2023/07/07 05:06:08;;;;;;;8.60;3.10;;;14.10;99.90;;;;;;5053462;28;20467;-67
2023/07/07 05:08:36;;;;;;;5.13;2.87;;;14.20;99.90;;;;;;5051747;28;20478;-67
2023/07/07 05:11:03;;;;;;;3.93;2.90;;;14.30;99.90;;;;;;5051694;28;20546;-67
2023/07/07 05:13:28;;;;;;;3.03;2.33;;;14.40;99.90;;;;;;5051854;28;20401;-67
2023/07/07 05:16:05;;;;;;;4.67;3.13;;;14.50;99.90;;;;;;5053560;28;20412;-67
2023/07/07 05:18:31;;;;;;;4.83;2.40;;;14.60;99.90;;;;;;5051771;28;20186;-67
2023/07/07 05:20:57;;;;;;;5.40;3.60;;;14.70;99.90;;;;;;5052534;28;20413;-68
2023/07/07 05:23:23;;;;;;;4.80;3.03;;;14.80;99.90;;;;;;5051660;28;20415;-68
2023/07/07 05:25:49;;;;;;;4.23;3.50;;;14.90;99.90;;;;;;5052054;28;20171;-67
2023/07/07 05:28:15;;;;;;;5.37;3.93;;;15.00;99.90;;;;;;5051845;28;20197;-66
2023/07/07 05:30:42;;;;;;;3.80;2.97;;;15.00;99.90;;;;;;5055546;28;20413;-67
2023/07/07 05:33:08;;;;;;;4.00;2.90;;;15.10;99.90;;;;;;5057956;28;20178;-69
2023/07/07 05:35:33;;;;;;;5.77;2.80;;;15.20;99.90;;;;;;5058659;28;20957;-68
2023/07/07 05:38:00;;;;;;;3.40;2.60;;;15.20;99.90;;;;;;5059091;28;20429;-67
2023/07/07 05:40:28;;;;;;;4.13;2.90;;;15.30;99.90;;;;;;5055649;28;20186;-68
2023/07/07 05:42:54;;;;;;;5.00;2.80;;;15.30;99.90;;;;;;5058614;28;20437;-68
2023/07/07 05:45:23;;;;;;;3.47;2.20;;;15.50;99.90;;;;;;5057667;28;20401;-67
2023/07/07 05:47:48;;;;;;;3.00;2.40;;;15.60;99.90;;;;;;5055052;28;20222;-67
2023/07/07 05:50:14;;;;;;;2.60;2.40;;;15.70;99.90;;;;;;5055155;28;20479;-67
2023/07/07 05:52:39;;;;;;;2.37;2.17;;;15.70;99.90;;;;;;5055566;28;20210;-67
2023/07/07 05:55:05;;;;;;;3.83;2.43;;;15.80;99.90;;;;;;5055674;28;20225;-67
2023/07/07 05:57:31;;;;;;;3.77;2.90;;;16.20;99.90;;;;;;5056959;28;20563;-67
2023/07/07 05:59:56;;;;;;;5.60;3.00;;;16.50;99.90;;;;;;5057464;28;20406;-68
2023/07/07 06:02:22;;;;;;;3.37;2.60;;;16.70;99.90;;;;;;5056110;28;20171;-68
2023/07/07 06:04:48;;;;;;;6.30;3.07;;;16.90;99.90;;;;;;5054887;28;20198;-68
2023/07/07 06:07:13;;;;;;;5.83;2.93;;;17.20;99.90;;;;;;5055281;28;20675;-68
2023/07/07 06:09:39;;;;;;;6.20;3.73;;;17.50;99.90;;;;;;5057091;28;20171;-68
2023/07/07 06:12:05;;;;;;;5.57;3.20;;;17.80;99.90;;;;;;5056027;28;20237;-68
2023/07/07 06:14:31;;;;;;;3.53;2.20;;;18.00;99.90;;;;;;5056158;28;20185;-69
2023/07/07 06:16:56;;;;;;;3.93;2.70;;;18.50;99.90;;;;;;5054335;28;20425;-70
2023/07/07 06:19:22;;;;;;;4.40;2.67;;;19.30;99.90;;;;;;5054706;28;20871;-69
2023/07/07 06:21:48;;;;;;;5.93;2.73;;;19.80;99.90;;;;;;5056560;28;20179;-68
2023/07/07 06:24:13;;;;;;;3.27;2.57;;;20.30;99.90;;;;;;5057302;28;20213;-68
2023/07/07 06:26:39;;;;;;;4.57;2.80;;;21.20;99.90;;;;;;5054841;28;20174;-68
2023/07/07 06:29:04;;;;;;;2.03;1.93;;;22.20;99.90;;;;;;5056319;28;20175;-67
2023/07/07 06:31:30;;;;;;;3.60;2.60;;;23.20;99.90;;;;;;5056479;28;20563;-67
2023/07/07 06:33:55;;;;;;;4.30;2.90;;;24.00;99.90;;;;;;5055065;28;20178;-67
2023/07/07 06:36:21;;;;;;;4.60;2.00;;;24.50;99.90;;;;;;5054715;28;20175;-69
2023/07/07 06:38:46;;;;;;;3.20;2.10;;;25.50;99.90;;;;;;5054441;28;20268;-68
2023/07/07 06:41:15;;;;;;;1.97;1.77;;;26.70;94.80;;;;;;5055322;28;20251;-68
2023/07/07 06:43:41;;;;;;;3.73;2.13;;;27.60;90.20;;;;;;5055339;28;20261;-68
2023/07/07 06:46:09;;;;;;;5.07;1.90;;;28.60;80.60;;;;;;5053996;28;20441;-69
2023/07/07 06:48:35;;;;;;;3.80;2.30;;;29.60;75.70;;;;;;5054093;28;20690;-68
2023/07/07 06:51:00;;;;;;;2.40;2.13;;;30.00;60.70;;;;;;5054281;28;20453;-69
2023/07/07 06:53:26;;;;;;;1.83;1.60;;;30.50;57.00;;;;;;5054348;28;20224;-68
2023/07/07 06:55:51;;;;;;;2.10;1.90;;;30.90;54.50;;;;;;5054187;28;20174;-68
2023/07/07 06:58:22;;;;;;;4.40;2.37;;;30.90;51.60;;;;;;5054077;28;20210;-70
2023/07/07 07:00:47;;;;;;;2.70;2.10;;;31.50;51.30;;;;;;5053889;28;20155;-68
2023/07/07 07:03:13;;;;;;;2.37;2.17;;;31.40;47.10;;;;;;5053855;28;20459;-69
2023/07/07 07:05:40;;;;;;;8.83;2.50;;;31.90;47.50;;;;;;5053547;28;20242;-68
2023/07/07 07:08:05;;;;;;;1.90;1.80;;;32.90;49.10;;;;;;5053592;28;20199;-69
2023/07/07 07:10:31;;;;;;;2.43;1.83;;;33.90;47.50;;;;;;5053762;28;20420;-68
2023/07/07 07:12:56;;;;;;;2.40;2.20;;;34.90;45.10;;;;;;5053646;28;20217;-68
2023/07/07 07:15:22;;;;;;;3.10;2.80;;;35.30;42.00;;;;;;5053395;28;20240;-69
2023/07/07 07:17:47;;;;;;;3.27;2.27;;;35.90;40.70;;;;;;5053631;28;20186;-69
2023/07/07 07:20:14;;;;;;;2.20;2.00;;;35.90;38.50;;;;;;5053566;28;20167;-70
2023/07/07 07:22:40;;;;;;;2.60;2.00;;;35.20;36.70;;;;;;5053528;28;20245;-70
2023/07/07 07:25:06;;;;;;;2.23;2.03;;;36.30;38.80;;;;;;5053287;28;20372;-70
2023/07/07 07:27:32;;;;;;;4.60;3.00;;;37.30;38.10;;;;;;5053312;28;20187;-69
2023/07/07 07:29:57;;;;;;;2.20;2.00;;;37.90;35.30;;;;;;5053379;28;20376;-70
2023/07/07 07:32:23;;;;;;;2.20;2.00;;;38.40;33.30;;;;;;5053370;28;20595;-69
2023/07/07 07:34:48;;;;;;;5.23;2.03;;;39.00;34.40;;;;;;5053249;28;20161;-69
2023/07/07 07:37:14;;;;;;;4.03;2.10;;;39.40;32.20;;;;;;5052851;28;20282;-69
2023/07/07 07:39:40;;;;;;;3.37;2.17;;;40.50;32.10;;;;;;5053239;28;20163;-69
2023/07/07 07:42:05;;;;;;;2.90;2.30;;;41.60;31.30;;;;;;5053131;28;20798;-69
2023/07/07 07:44:31;;;;;;;2.50;2.30;;;41.40;28.10;;;;;;5052974;28;20171;-70
2023/07/07 07:46:58;;;;;;;3.30;2.27;;;39.90;27.40;;;;;;5052615;28;20632;-69
2023/07/07 07:49:25;;;;;;;3.60;2.40;;;40.40;29.40;;;;;;5053008;28;20376;-70
2023/07/07 07:51:51;;;;;;;2.30;1.90;;;40.90;28.40;;;;;;5052873;28;20539;-69
2023/07/07 07:54:18;;;;;;;2.60;2.40;;;41.70;28.80;;;;;;5052330;28;20808;-69
2023/07/07 07:56:44;;;;;;;2.73;2.33;;;42.30;27.30;;;;;;5052628;28;20155;-69
2023/07/07 07:59:09;;;;;;;2.57;2.23;;;42.20;27.30;;;;;;5052631;28;20402;-70
2023/07/07 08:01:35;;;;;;;5.13;2.17;;;42.60;27.10;;;;;;5052748;28;20914;-69
2023/07/07 08:04:05;;;;;;;3.00;2.60;;;43.80;28.30;;;;;;5052789;28;20167;-71
2023/07/07 08:06:31;;;;;;;2.30;2.07;;;44.90;26.20;;;;;;5052145;28;20182;-71
2023/07/07 08:08:57;;;;;;;2.80;2.47;;;45.40;26.10;;;;;;5052571;28;20394;-71
2023/07/07 08:11:40;;;;;;;2.77;2.57;;;46.30;24.70;;;;;;5052587;28;20427;-71
2023/07/07 08:14:16;;;;;;;2.63;2.40;;;46.60;24.30;;;;;;5052443;28;20167;-69
2023/07/07 08:16:42;;;;;;;2.77;2.57;;;47.20;23.90;;;;;;5052130;28;20374;-69
2023/07/07 08:19:08;;;;;;;3.40;3.10;;;46.90;23.40;;;;;;5052461;28;20485;-70
2023/07/07 08:21:34;;;;;;;2.80;2.27;;;47.20;23.00;;;;;;5052683;28;20639;-71
2023/07/07 08:24:00;;;;;;;2.53;2.33;;;47.30;22.80;;;;;;5052375;28;20252;-69
2023/07/07 08:26:25;;;;;;;2.20;2.10;;;47.10;22.40;;;;;;5052034;28;20376;-71
2023/07/07 08:28:51;;;;;;;2.47;2.30;;;46.50;22.60;;;;;;5052231;28;20226;-71
2023/07/07 08:31:18;;;;;;;2.77;2.47;;;47.40;23.50;;;;;;5052148;28;20191;-71
2023/07/07 08:33:47;;;;;;;3.93;2.53;;;48.10;22.90;;;;;;5052285;28;20171;-70
2023/07/07 08:36:13;;;;;;;3.90;3.17;;;48.20;21.50;;;;;;5051821;28;20372;-70
2023/07/07 08:38:39;;;;;;;2.63;2.43;;;48.10;21.00;;;;;;5052379;28;20421;-71
2023/07/07 08:41:04;;;;;;;3.17;2.97;;;48.80;21.50;;;;;;5051971;28;20171;-67
2023/07/07 08:43:30;;;;;;;8.50;3.03;;;48.10;20.60;;;;;;5051978;28;20181;-67
2023/07/07 08:46:29;;;;;;;3.63;2.90;;;47.50;21.30;;;;;;5052275;28;20202;-68
2023/07/07 08:49:18;;;;;;;3.20;2.90;;;48.70;22.50;;;;;;5052231;28;20920;-68
2023/07/07 08:51:53;;;;;;;3.40;3.10;;;50.40;22.10;;;;;;5052680;28;20511;-68
2023/07/07 08:54:24;;;;;;;3.87;3.60;;;51.80;22.20;;;;;;5051715;28;20409;-68
2023/07/07 08:56:56;;;;;;;6.30;5.27;;;53.20;21.60;;;;;;5052151;28;20768;-69
2023/07/07 08:59:49;;;;;;;6.07;5.43;;;53.40;19.80;;;;;;5052479;28;20396;-69
2023/07/07 09:02:38;;;;;;;5.70;5.30;;;53.80;19.90;;;;;;5052133;28;20429;-70
2023/07/07 09:05:35;;;;;;;6.67;6.07;;;54.00;19.60;;;;;;5052438;28;20444;-70
2023/07/07 09:08:15;;;;;;;6.30;5.90;;;54.40;20.00;;;;;;5055982;28;20464;-70
2023/07/07 09:11:25;;;;;;;5.20;4.90;;;55.30;19.90;;;;;;5056191;28;20824;-70
2023/07/07 09:13:55;;;;;;;5.80;5.40;;;56.00;19.20;;;;;;5056281;28;20415;-70
2023/07/07 09:16:26;;;;;;;5.50;5.13;;;56.70;19.10;;;;;;5055788;28;20823;-69
2023/07/07 09:18:54;;;;;;;6.10;5.70;;;57.20;19.00;;;;;;5055606;28;20432;-69
2023/07/07 09:21:47;;;;;;;5.00;4.70;;;57.70;18.20;;;;;;5055725;28;20396;-69
2023/07/07 09:24:42;;;;;;;4.70;4.40;;;58.20;18.20;;;;;;5055682;28;20393;-69
2023/07/07 09:27:19;;;;;;;6.30;4.60;;;58.20;17.70;;;;;;5055208;28;20539;-69
2023/07/07 09:29:46;;;;;;;6.10;5.70;;;58.30;16.90;;;;;;5055416;28;20487;-69
2023/07/07 09:32:16;;;;;;;4.63;4.23;;;58.50;17.40;;;;;;5055566;28;20413;-69
2023/07/07 09:34:41;;;;;;;4.40;4.20;;;57.60;16.80;;;;;;5055618;28;20977;-69
2023/07/07 09:37:21;;;;;;;4.50;4.20;;;57.80;17.10;;;;;;5055227;28;20447;-70
2023/07/07 09:40:11;;;;;;;6.80;4.77;;;57.70;16.20;;;;;;5055417;28;20170;-69
2023/07/07 09:43:08;;;;;;;4.43;4.23;;;57.50;16.90;;;;;;5055320;28;20448;-69
2023/07/07 09:45:33;;;;;;;3.90;3.70;;;57.40;16.00;;;;;;5055040;28;20893;-69
2023/07/07 09:48:08;;;;;;;3.87;3.67;;;57.00;16.10;;;;;;5055171;28;20431;-70
2023/07/07 09:51:27;;;;;;;4.13;3.83;;;55.70;14.60;;;;;;5055262;28;20196;-69
2023/07/07 09:53:53;;;;;;;3.90;3.70;;;55.60;15.90;;;;;;5053875;28;20470;-70
2023/07/07 09:56:25;;;;;;;3.80;3.50;;;56.10;17.10;;;;;;5054868;28;20894;-69
2023/07/07 09:59:02;;;;;;;3.70;3.40;;;55.60;15.80;;;;;;5055134;28;20208;-69
2023/07/07 10:01:34;;;;;;;3.77;3.47;;;54.50;15.60;;;;;;5056449;28;20496;-69
2023/07/07 10:04:00;;;;;;;3.67;3.47;;;54.10;15.50;;;;;;5056163;28;20412;-69
2023/07/07 10:06:52;;;;;;;3.43;3.23;;;53.90;15.50;;;;;;5054542;28;20523;-69
2023/07/07 10:09:18;;;;;;;2.93;2.80;;;53.40;15.00;;;;;;5048139;28;20421;-69
2023/07/07 10:11:45;;;;;;;2.90;2.70;;;54.40;15.80;;;;;;5054847;28;20420;-69
2023/07/07 10:14:14;;;;;;;3.03;2.83;;;54.90;15.70;;;;;;5054793;28;20163;-69
2023/07/07 10:17:05;;;;;;;3.60;3.40;;;55.90;16.50;;;;;;5053942;28;20440;-70
2023/07/07 10:19:38;;;;;;;3.70;3.40;;;56.00;15.10;;;;;;5054575;28;20606;-70
2023/07/07 10:22:04;;;;;;;3.30;3.10;;;55.00;15.30;;;;;;5054578;28;20448;-69
2023/07/07 10:24:30;;;;;;;3.90;3.60;;;53.90;14.10;;;;;;5054606;28;20389;-69
2023/07/07 10:26:57;;;;;;;3.10;2.80;;;53.80;15.30;;;;;;5054130;28;20482;-68
2023/07/07 10:29:30;;;;;;;3.10;2.90;;;53.80;15.50;;;;;;5054474;28;20159;-71
2023/07/07 10:31:56;;;;;;;2.93;2.73;;;54.10;16.00;;;;;;5054535;28;20955;-68
2023/07/07 10:34:30;;;;;;;3.50;3.30;;;54.60;16.40;;;;;;5054397;28;20522;-70
2023/07/07 10:36:56;;;;;;;3.80;3.00;;;54.10;15.60;;;;;;5054053;28;20679;-69
2023/07/07 10:39:24;;;;;;;3.60;3.40;;;54.30;15.60;;;;;;5054301;28;20413;-69
2023/07/07 10:41:49;;;;;;;3.60;3.40;;;54.40;16.30;;;;;;5054029;28;20461;-69
2023/07/07 10:44:15;;;;;;;3.87;3.67;;;55.40;16.80;;;;;;5054065;28;20409;-70
2023/07/07 10:46:41;;;;;;;3.90;3.60;;;56.20;16.50;;;;;;5053793;28;20221;-69
2023/07/07 10:49:16;;;;;;;3.90;3.50;;;56.40;14.70;;;;;;5052884;28;20169;-69
2023/07/07 10:51:44;;;;;;;4.00;3.70;;;56.80;15.60;;;;;;5054237;28;20205;-70
2023/07/07 10:54:28;;;;;;;4.33;4.13;;;57.20;15.90;;;;;;5054064;28;20417;-71
2023/07/07 10:57:06;;;;;;;3.37;3.17;;;57.10;14.90;;;;;;5053664;28;20486;-70
2023/07/07 10:59:43;;;;;;;3.20;3.10;;;56.70;15.10;;;;;;5053986;28;20397;-70
2023/07/07 11:02:34;;;;;;;3.20;3.00;;;56.40;14.30;;;;;;5053913;28;20534;-70
2023/07/07 11:05:32;;;;;;;3.80;3.50;;;54.50;14.40;;;;;;5053678;28;20397;-74
2023/07/07 11:07:57;;;;;;;3.50;3.30;;;53.80;15.40;;;;;;5053477;28;20814;-70
2023/07/07 11:10:56;;;;;;;3.50;3.30;;;53.80;15.60;;;;;;5053635;28;20404;-70
2023/07/07 11:13:40;;;;;;;3.70;3.47;;;54.80;15.70;;;;;;5052469;28;20170;-70
2023/07/07 11:16:45;;;;;;;3.63;2.80;;;55.10;14.80;;;;;;5053452;28;20530;-69
2023/07/07 11:19:21;;;;;;;4.10;3.90;;;55.50;14.90;;;;;;5053594;28;20760;-71
2023/07/07 11:22:09;;;;;;;3.70;3.40;;;55.50;14.60;;;;;;5053520;28;20535;-72
2023/07/07 11:24:51;;;;;;;3.73;3.30;;;54.60;14.70;;;;;;5052138;28;20811;-70
2023/07/07 11:27:56;;;;;;;3.00;2.80;;;53.70;14.80;;;;;;5052718;28;20428;-70
2023/07/07 11:30:39;;;;;;;3.37;3.17;;;54.00;15.10;;;;;;5053356;28;20470;-70
2023/07/07 11:33:36;;;;;;;3.10;2.90;;;53.80;14.10;;;;;;5053316;28;20500;-70
2023/07/07 11:36:40;;;;;;;3.10;2.90;;;53.10;14.30;;;;;;5045341;28;20797;-70
2023/07/07 11:39:34;;;;;;;3.60;3.20;;;53.60;15.60;;;;;;5053183;28;20401;-70
2023/07/07 11:42:34;;;;;;;3.20;2.90;;;54.70;15.90;;;;;;5053081;28;20459;-70
2023/07/07 11:45:43;;;;;;;3.20;3.00;;;56.10;15.00;;;;;;5052816;28;20404;-70
2023/07/07 11:48:45;;;;;;;3.47;3.17;;;55.20;14.40;;;;;;5052984;28;20887;-70
2023/07/07 11:51:14;;;;;;;3.27;3.07;;;55.30;14.40;;;;;;5053048;28;20537;-70
2023/07/07 11:53:50;;;;;;;3.93;3.60;;;55.60;14.40;;;;;;5052933;28;20405;-70
2023/07/07 11:56:38;;;;;;;4.00;3.70;;;56.40;15.20;;;;;;5052764;28;20777;-70
2023/07/07 11:59:25;;;;;;;4.43;4.13;;;56.80;13.90;;;;;;5052886;28;20446;-70
2023/07/07 12:01:53;;;;;;;3.40;3.20;;;56.50;13.80;;;;;;5051581;28;20476;-70
2023/07/07 12:04:38;;;;;;;3.20;3.00;;;56.30;13.40;;;;;;5052757;28;20401;-70
2023/07/07 12:07:08;;;;;;;3.20;3.07;;;55.50;13.80;;;;;;5052358;28;20464;-70
2023/07/07 12:09:59;;;;;;;3.07;2.87;;;55.70;14.20;;;;;;5052702;28;20492;-69
2023/07/07 12:12:39;;;;;;;3.20;3.00;;;56.10;14.40;;;;;;5052645;28;20420;-70
2023/07/07 12:15:16;;;;;;;4.00;3.70;;;56.90;14.90;;;;;;5052059;28;20401;-70
2023/07/07 12:17:48;;;;;;;3.90;3.70;;;57.60;14.90;;;;;;5052458;28;20554;-71
2023/07/07 12:20:20;;;;;;;3.40;3.20;;;58.20;14.30;;;;;;5052443;28;20405;-71
2023/07/07 12:22:46;;;;;;;3.60;3.40;;;57.90;13.70;;;;;;5052424;28;20862;-70
2023/07/07 12:25:21;;;;;;;3.30;3.10;;;56.70;13.70;;;;;;5052124;28;20397;-70
2023/07/07 12:27:51;;;;;;;4.50;4.10;;;56.40;15.10;;;;;;5052259;28;20424;-71
2023/07/07 12:30:32;;;;;;;4.47;4.17;;;56.30;14.80;;;;;;5052291;28;20401;-70
2023/07/07 12:32:58;;;;;;;3.90;3.60;;;56.60;14.40;;;;;;5051035;28;20409;-70
2023/07/07 12:35:53;;;;;;;3.20;3.00;;;56.30;14.60;;;;;;5052237;28;20836;-70
2023/07/07 12:38:26;;;;;;;3.70;3.40;;;56.10;14.20;;;;;;5051785;28;20440;-70
2023/07/07 12:40:56;;;;;;;3.37;3.17;;;56.10;14.00;;;;;;5051912;28;20419;-69
2023/07/07 12:43:25;;;;;;;3.67;3.37;;;56.40;14.90;;;;;;5052100;28;20405;-69
2023/07/07 12:45:52;;;;;;;3.47;3.27;;;55.10;14.00;;;;;;5051784;28;20398;-68
2023/07/07 12:48:21;;;;;;;6.83;3.50;;;54.80;14.10;;;;;;5051957;28;20513;-69
2023/07/07 12:50:48;;;;;;;3.00;2.80;;;53.30;13.80;;;;;;5051963;28;20906;-69
2023/07/07 12:53:35;;;;;;;3.30;2.97;;;52.70;14.10;;;;;;5052230;28;20930;-69
2023/07/07 12:56:06;;;;;;;3.00;2.80;;;52.20;14.60;;;;;;5051727;28;20405;-68
2023/07/07 12:58:47;;;;;;;2.93;2.73;;;52.50;15.10;;;;;;5051921;28;20979;-69
2023/07/07 13:01:15;;;;;;;3.00;2.80;;;53.10;15.80;;;;;;5051881;28;20479;-69
2023/07/07 13:04:02;;;;;;;2.50;2.30;;;53.70;16.30;;;;;;5051785;28;20811;-71
2023/07/07 13:06:30;;;;;;;3.50;3.30;;;54.10;16.00;;;;;;5051493;28;20484;-69
2023/07/07 13:09:18;;;;;;;3.30;2.97;;;53.70;15.30;;;;;;5051864;28;20879;-69